Time;durP1;ratioP1;P1;durP2;ratioP2;P2;SDS_P1;SDS_P2;PMS_P1;PMS_P2;Temp;Humidity;BMP_temperature;BMP_pressure;BME280_temperature;BME280_humidity;BME280_pressure;Samples;Min_cycle;Max_cycle;Signal;HPM_P1;HPM_P2
2023/03/28 00:00:47;;;;;;;6.55;5.28;;;;;;;5.99;84.82;148812.13;4985485;28;20175;-68
2023/03/28 00:03:17;;;;;;;5.43;4.88;;;;;;;6.01;84.50;148817.25;4971509;28;20086;-68
2023/03/28 00:05:47;;;;;;;6.78;5.38;;;;;;;5.99;84.68;148810.88;4976965;28;20041;-69
2023/03/28 00:08:13;;;;;;;4.90;4.40;;;;;;;5.97;84.71;148805.69;4985229;28;20045;-70
2023/03/28 00:10:39;;;;;;;5.18;4.40;;;;;;;6.01;84.46;148815.97;4983859;28;20034;-70
2023/03/28 00:13:04;;;;;;;7.32;4.55;;;;;;;5.99;84.74;148812.13;4966263;29;20019;-71
2023/03/28 00:15:30;;;;;;;4.97;4.35;;;;;;;5.99;84.41;148810.88;4966457;29;20031;-70
2023/03/28 00:17:59;;;;;;;5.60;4.15;;;;;;;5.91;84.47;148791.63;4978361;28;20098;-69
2023/03/28 00:20:26;;;;;;;6.05;4.65;;;;;;;5.90;84.17;148787.78;4977824;28;20272;-71
2023/03/28 00:22:53;;;;;;;5.35;4.28;;;;;;;5.95;84.04;148800.59;4969101;28;20498;-68
2023/03/28 00:25:19;;;;;;;5.63;4.75;;;;;;;5.95;84.05;148800.59;4985579;28;20109;-70
2023/03/28 00:27:45;;;;;;;5.30;4.43;;;;;;;5.88;84.38;148785.22;4967192;28;20201;-68
2023/03/28 00:30:11;;;;;;;4.47;4.07;;;;;;;5.79;84.72;148762.25;4979308;28;20098;-68
2023/03/28 00:32:36;;;;;;;7.30;4.40;;;;;;;5.81;84.44;148766.09;4976354;28;20043;-68
2023/03/28 00:35:02;;;;;;;5.47;4.75;;;;;;;5.80;84.64;148764.81;4976481;28;20039;-70
2023/03/28 00:37:28;;;;;;;5.68;5.03;;;;;;;5.68;84.60;148735.41;4963566;29;20027;-70
2023/03/28 00:39:54;;;;;;;8.40;4.85;;;;;;;5.64;85.01;148725.22;4964991;29;20215;-70
2023/03/28 00:42:21;;;;;;;5.13;4.25;;;;;;;5.52;85.09;148694.56;4980348;28;20038;-70
2023/03/28 00:44:55;;;;;;;7.38;4.90;;;;;;;5.57;85.36;148706.03;4976513;28;20041;-69
2023/03/28 00:47:40;;;;;;;6.80;4.65;;;;;;;5.61;85.67;148717.53;4978166;28;20090;-70
2023/03/28 00:50:13;;;;;;;8.05;4.68;;;;;;;5.38;85.30;148658.78;4970864;28;20025;-69
2023/03/28 00:53:05;;;;;;;6.53;4.80;;;;;;;5.46;85.81;148680.50;4984578;28;20029;-70
2023/03/28 00:55:34;;;;;;;5.18;4.68;;;;;;;5.40;85.81;148663.88;4984697;28;20106;-70
2023/03/28 00:58:03;;;;;;;7.35;4.57;;;;;;;5.43;86.07;148672.84;4965747;28;20038;-70
2023/03/28 01:00:29;;;;;;;6.50;4.75;;;;;;;5.48;86.00;148684.34;4981577;28;20248;-70
2023/03/28 01:02:57;;;;;;;5.47;4.20;;;;;;;5.54;85.56;148699.66;4988157;28;20039;-70
2023/03/28 01:05:27;;;;;;;5.50;4.68;;;;;;;5.44;85.34;148674.09;4971959;28;20215;-69
2023/03/28 01:08:01;;;;;;;8.07;5.00;;;;;;;5.32;85.38;148644.75;4981571;28;20089;-69
2023/03/28 01:10:27;;;;;;;6.00;5.07;;;;;;;5.38;85.98;148660.06;4965506;28;20315;-71
2023/03/28 01:12:55;;;;;;;6.60;5.03;;;;;;;5.24;85.88;148625.56;4984193;28;20046;-69
2023/03/28 01:15:20;;;;;;;6.32;5.20;;;;;;;5.28;85.79;148634.53;4984845;28;20031;-69
2023/03/28 01:17:46;;;;;;;6.35;5.28;;;;;;;5.25;85.96;148626.88;4973973;28;20072;-68
2023/03/28 01:20:35;;;;;;;5.07;4.57;;;;;;;5.23;86.08;148621.75;4978863;28;20086;-69
2023/03/28 01:23:16;;;;;;;7.53;5.13;;;;;;;5.09;86.10;148587.25;4965183;29;20239;-70
2023/03/28 01:25:45;;;;;;;6.15;4.78;;;;;;;5.18;86.20;148611.53;4966756;28;20117;-69
2023/03/28 01:28:41;;;;;;;6.25;5.47;;;;;;;5.18;86.31;148610.25;4983742;28;20339;-69
2023/03/28 01:31:45;;;;;;;5.80;4.95;;;;;;;5.10;85.70;148589.81;4974271;28;20207;-69
2023/03/28 01:34:39;;;;;;;6.47;5.55;;;;;;;5.07;86.13;148582.16;4975491;28;20373;-68
2023/03/28 01:37:11;;;;;;;5.82;4.85;;;;;;;5.04;86.45;148575.78;4964908;28;20031;-69
2023/03/28 01:40:12;;;;;;;5.82;5.15;;;;;;;5.01;86.10;148569.38;4981427;28;20035;-68
2023/03/28 01:42:50;;;;;;;7.45;5.38;;;;;;;4.91;86.36;148543.84;4967240;28;20046;-68
2023/03/28 01:45:30;;;;;;;7.95;5.43;;;;;;;4.93;86.46;148549.00;4981720;28;20038;-69
2023/03/28 01:48:19;;;;;;;8.02;5.70;;;;;;;4.83;86.54;148523.41;4972793;28;20031;-70
2023/03/28 01:50:51;;;;;;;7.95;5.60;;;;;;;4.92;86.19;148546.41;4974359;28;20041;-68
2023/03/28 01:53:28;;;;;;;8.80;5.60;;;;;;;4.89;86.10;148538.78;4982531;28;20346;-69
2023/03/28 01:56:10;;;;;;;8.02;5.90;;;;;;;4.74;86.17;148500.47;4983908;28;20263;-69
2023/03/28 01:59:02;;;;;;;7.38;5.22;;;;;;;4.84;85.77;148527.28;4983825;28;20055;-69
2023/03/28 02:01:39;;;;;;;7.10;5.80;;;;;;;4.69;86.07;148487.69;4953278;28;20062;-70
2023/03/28 02:04:10;;;;;;;6.75;5.75;;;;;;;4.69;85.92;148487.69;4964640;28;20023;-69
2023/03/28 02:06:38;;;;;;;7.93;5.80;;;;;;;4.74;86.93;148500.47;4980925;28;20027;-69
2023/03/28 02:09:06;;;;;;;6.88;5.57;;;;;;;4.69;85.81;148487.69;4971266;28;20030;-69
2023/03/28 02:11:33;;;;;;;10.50;5.43;;;;;;;4.69;86.42;148487.69;4971520;28;20077;-69
2023/03/28 02:14:13;;;;;;;9.15;7.20;;;;;;;4.67;86.20;148483.84;4979719;28;20320;-68
2023/03/28 02:16:40;;;;;;;6.28;5.28;;;;;;;4.56;85.92;148457.06;4964066;28;20027;-67
2023/03/28 02:19:07;;;;;;;8.40;6.03;;;;;;;4.57;86.46;148458.34;4982671;28;20098;-67
2023/03/28 02:21:57;;;;;;;9.25;5.75;;;;;;;4.44;85.86;148427.69;4966648;28;20043;-67
2023/03/28 02:24:24;;;;;;;6.80;5.50;;;;;;;4.54;86.07;148451.94;4962931;29;20066;-66
2023/03/28 02:26:50;;;;;;;8.45;5.30;;;;;;;4.42;86.28;148421.34;4962837;28;20315;-69
2023/03/28 02:29:17;;;;;;;7.30;5.60;;;;;;;4.47;85.93;148434.09;4963134;28;20031;-68
2023/03/28 02:31:43;;;;;;;10.25;5.30;;;;;;;4.43;86.18;148423.88;4980034;28;20045;-69
2023/03/28 02:34:09;;;;;;;9.82;6.47;;;;;;;4.28;85.52;148386.88;4971556;28;20034;-68
2023/03/28 02:36:47;;;;;;;6.82;5.28;;;;;;;4.29;86.45;148390.72;4967219;28;20039;-68
2023/03/28 02:39:25;;;;;;;7.28;5.72;;;;;;;4.28;85.72;148388.16;4975960;28;20038;-69
2023/03/28 02:42:28;;;;;;;7.07;5.38;;;;;;;4.29;86.39;148390.72;4972184;28;20030;-69
2023/03/28 02:45:42;;;;;;;7.82;5.53;;;;;;;4.17;86.22;148358.81;4972747;28;20334;-70
2023/03/28 02:48:29;;;;;;;8.15;5.90;;;;;;;4.14;86.11;148352.41;4975880;28;20074;-69
2023/03/28 02:50:57;;;;;;;6.47;5.68;;;;;;;4.12;85.87;148347.34;4974046;28;20031;-68
2023/03/28 02:53:43;;;;;;;8.13;5.85;;;;;;;4.08;86.05;148337.13;4982543;28;20026;-68
2023/03/28 02:56:26;;;;;;;9.52;5.90;;;;;;;3.93;85.98;148301.41;4981809;28;20267;-68
2023/03/28 02:59:03;;;;;;;7.43;5.85;;;;;;;4.04;86.11;148326.91;4982994;28;20042;-67
2023/03/28 03:01:29;;;;;;;7.03;5.75;;;;;;;4.00;86.25;148316.72;4982682;28;20035;-67
2023/03/28 03:03:56;;;;;;;7.50;5.35;;;;;;;3.93;85.99;148301.41;4964590;28;20102;-67
2023/03/28 03:06:21;;;;;;;7.45;5.95;;;;;;;3.97;86.11;148310.31;4981050;28;20026;-70
2023/03/28 03:08:47;;;;;;;9.85;6.80;;;;;;;3.94;86.30;148302.69;4976865;28;20046;-68
2023/03/28 03:11:13;;;;;;;8.65;6.95;;;;;;;3.94;86.47;148303.94;4970884;28;20118;-68
2023/03/28 03:13:38;;;;;;;10.38;6.93;;;;;;;3.92;86.50;148298.84;4986814;28;20045;-67
2023/03/28 03:16:04;;;;;;;7.38;6.07;;;;;;;3.94;86.23;148303.94;4967355;29;20045;-69
2023/03/28 03:18:31;;;;;;;8.98;6.90;;;;;;;3.93;85.93;148301.41;4982445;28;20026;-68
2023/03/28 03:20:57;;;;;;;11.75;7.78;;;;;;;3.88;85.46;148287.38;4986094;28;20038;-68
2023/03/28 03:23:22;;;;;;;9.52;7.65;;;;;;;3.86;86.30;148283.50;4985995;28;20046;-67
2023/03/28 03:25:49;;;;;;;9.57;7.80;;;;;;;3.84;86.04;148278.44;4985178;28;20051;-68
2023/03/28 03:28:15;;;;;;;10.60;7.30;;;;;;;3.81;85.42;148270.78;4967300;28;20035;-69
2023/03/28 03:30:41;;;;;;;11.82;7.22;;;;;;;3.85;85.92;148279.69;4984398;28;20049;-68
2023/03/28 03:33:09;;;;;;;9.68;6.97;;;;;;;3.77;85.53;148260.56;4993656;28;20098;-67
2023/03/28 03:35:35;;;;;;;10.55;7.88;;;;;;;3.80;85.35;148268.22;4986610;28;20034;-67
2023/03/28 03:38:01;;;;;;;11.90;7.95;;;;;;;3.73;86.29;148251.63;4986256;28;20027;-67
2023/03/28 03:40:27;;;;;;;12.18;8.60;;;;;;;3.78;85.39;148263.13;4985754;28;20038;-67
2023/03/28 03:42:52;;;;;;;9.82;7.68;;;;;;;3.80;86.04;148268.22;4985269;28;20361;-66
2023/03/28 03:45:18;;;;;;;9.63;7.07;;;;;;;3.81;86.43;148270.78;4972963;28;20038;-67
2023/03/28 03:47:44;;;;;;;11.02;8.00;;;;;;;3.82;86.21;148273.34;4966936;29;20046;-69
2023/03/28 03:50:10;;;;;;;10.02;7.78;;;;;;;3.85;86.28;148281.00;4970408;28;20038;-68
2023/03/28 03:52:36;;;;;;;15.02;9.15;;;;;;;3.85;86.53;148279.69;4986132;28;20037;-67
2023/03/28 03:55:02;;;;;;;12.73;8.80;;;;;;;3.90;85.92;148293.72;4986452;28;20219;-67
2023/03/28 03:57:28;;;;;;;12.55;7.78;;;;;;;3.91;85.56;148296.28;4985619;28;20149;-66
2023/03/28 03:59:56;;;;;;;10.85;7.32;;;;;;;3.90;84.78;148292.47;4976136;28;20034;-68
2023/03/28 04:02:21;;;;;;;10.73;8.18;;;;;;;3.88;85.33;148288.66;4971712;28;20035;-69
2023/03/28 04:04:47;;;;;;;10.10;7.07;;;;;;;3.91;85.29;148296.28;4985184;28;20299;-68
2023/03/28 04:07:12;;;;;;;10.20;8.23;;;;;;;3.95;86.12;148305.25;4965845;28;20074;-68
2023/03/28 04:09:38;;;;;;;11.38;8.20;;;;;;;4.01;85.76;148319.28;4982163;28;20030;-67
2023/03/28 04:12:05;;;;;;;16.77;10.27;;;;;;;3.99;85.37;148315.44;4974455;28;20031;-67
2023/03/28 04:14:31;;;;;;;12.02;8.93;;;;;;;4.00;85.38;148316.72;4973034;28;20030;-68
2023/03/28 04:16:57;;;;;;;12.02;8.30;;;;;;;4.05;85.61;148329.47;4981879;28;20338;-69
2023/03/28 04:19:23;;;;;;;9.55;8.10;;;;;;;4.06;86.13;148333.31;4966417;28;20031;-68
2023/03/28 04:21:51;;;;;;;14.32;10.05;;;;;;;4.13;86.42;148349.84;4981868;28;20237;-66
2023/03/28 04:24:19;;;;;;;14.15;10.13;;;;;;;4.21;86.03;148369.03;4972940;28;20049;-69
2023/03/28 04:26:49;;;;;;;12.32;10.02;;;;;;;4.24;86.09;148376.66;4974448;28;20030;-67
2023/03/28 04:29:15;;;;;;;14.05;9.43;;;;;;;4.27;86.07;148385.56;4980855;28;20094;-69
2023/03/28 04:31:48;;;;;;;13.07;10.02;;;;;;;4.30;86.44;148393.28;4984668;28;20057;-69
2023/03/28 04:34:14;;;;;;;12.60;9.90;;;;;;;4.34;86.41;148402.19;4974936;28;20139;-69
2023/03/28 04:36:40;;;;;;;15.40;10.77;;;;;;;4.40;86.21;148416.22;4980684;28;20035;-67
2023/03/28 04:39:06;;;;;;;15.75;10.00;;;;;;;4.48;86.82;148436.66;4965803;28;20061;-68
2023/03/28 04:41:32;;;;;;;15.00;10.70;;;;;;;4.53;86.21;148448.13;4972681;28;20042;-68
2023/03/28 04:43:59;;;;;;;15.70;10.88;;;;;;;4.62;86.88;148471.13;4985222;28;20163;-70
2023/03/28 04:46:25;;;;;;;16.33;10.82;;;;;;;4.66;86.50;148482.59;4984904;28;20331;-70
2023/03/28 04:48:50;;;;;;;11.80;9.93;;;;;;;4.63;86.67;148474.94;4966482;28;20038;-69
2023/03/28 04:51:16;;;;;;;15.75;10.63;;;;;;;4.65;87.08;148480.03;4978228;28;20070;-68
2023/03/28 04:53:42;;;;;;;14.45;10.82;;;;;;;4.79;86.78;148513.25;4984688;28;20228;-68
2023/03/28 04:56:08;;;;;;;12.45;9.63;;;;;;;4.96;87.64;148555.34;4981338;28;20042;-68
2023/03/28 04:58:34;;;;;;;14.38;9.85;;;;;;;5.10;87.05;148589.81;4965583;28;20042;-68
2023/03/28 05:01:02;;;;;;;16.55;10.55;;;;;;;5.25;86.51;148626.88;4983750;28;20099;-70
2023/03/28 05:03:28;;;;;;;15.13;10.73;;;;;;;5.37;86.45;148657.50;4984773;28;20029;-69
2023/03/28 05:05:54;;;;;;;14.85;9.88;;;;;;;5.48;86.42;148684.34;4975461;28;20031;-72
2023/03/28 05:08:22;;;;;;;12.80;9.05;;;;;;;5.42;86.19;148669.03;4965001;29;20034;-70
2023/03/28 05:10:49;;;;;;;12.75;9.05;;;;;;;5.65;85.22;148726.50;4965372;28;20042;-69
2023/03/28 05:13:16;;;;;;;12.50;9.23;;;;;;;5.73;85.67;148745.63;4964632;29;20027;-70
2023/03/28 05:15:42;;;;;;;12.13;8.43;;;;;;;5.87;85.36;148781.41;4981055;28;20266;-70
2023/03/28 05:18:08;;;;;;;12.65;10.15;;;;;;;5.86;85.26;148778.88;4974261;28;20054;-70
2023/03/28 05:20:35;;;;;;;11.88;9.38;;;;;;;5.86;85.40;148780.13;4974561;28;20038;-69
2023/03/28 05:23:02;;;;;;;8.00;7.20;;;;;;;5.91;85.19;148791.63;4983238;28;20195;-70
2023/03/28 05:25:28;;;;;;;6.68;5.97;;;;;;;6.08;84.26;148832.59;4984319;28;20053;-72
2023/03/28 05:27:53;;;;;;;6.97;5.93;;;;;;;6.03;82.74;148821.09;4967446;28;20273;-71
2023/03/28 05:30:19;;;;;;;9.13;6.38;;;;;;;6.22;82.75;148868.34;4965116;28;20324;-70
2023/03/28 05:32:46;;;;;;;9.50;6.45;;;;;;;6.21;82.94;148865.78;4992783;28;20043;-70
2023/03/28 05:35:13;;;;;;;8.65;7.20;;;;;;;6.41;83.09;148914.38;4984160;28;20052;-70
2023/03/28 05:37:39;;;;;;;13.30;7.05;;;;;;;6.37;81.50;148906.72;4984537;28;20035;-70
2023/03/28 05:40:06;;;;;;;7.75;6.53;;;;;;;6.41;81.63;148915.63;4982947;28;20102;-70
2023/03/28 05:42:33;;;;;;;7.22;6.43;;;;;;;6.50;81.35;148938.66;4983923;28;20057;-70
2023/03/28 05:44:58;;;;;;;11.80;6.30;;;;;;;6.55;81.32;148950.16;4974134;28;20027;-70
2023/03/28 05:47:24;;;;;;;8.27;6.75;;;;;;;6.66;79.98;148977.03;4969137;28;20351;-70
2023/03/28 05:49:49;;;;;;;8.63;6.50;;;;;;;6.82;80.44;149017.91;4983357;28;20549;-70
2023/03/28 05:52:15;;;;;;;9.35;6.00;;;;;;;6.81;79.50;149015.38;4964757;28;20027;-71
2023/03/28 05:54:41;;;;;;;6.78;5.18;;;;;;;6.84;78.64;149023.06;4983871;28;20098;-70
2023/03/28 05:57:06;;;;;;;7.05;4.97;;;;;;;6.64;78.47;148973.19;4983548;28;20027;-69
2023/03/28 05:59:32;;;;;;;7.28;6.13;;;;;;;6.87;77.76;149029.47;4977799;28;20062;-70
2023/03/28 06:01:59;;;;;;;7.13;5.30;;;;;;;6.82;78.15;149016.66;4964054;29;20034;-70
2023/03/28 06:04:24;;;;;;;6.13;4.60;;;;;;;6.78;77.74;149007.69;4964030;28;20159;-70
2023/03/28 06:06:51;;;;;;;5.00;4.50;;;;;;;7.03;76.63;149070.34;4979324;28;20034;-70
2023/03/28 06:09:17;;;;;;;6.40;4.65;;;;;;;7.28;77.54;149131.72;4971216;28;20331;-70
2023/03/28 06:11:43;;;;;;;7.68;5.40;;;;;;;7.24;76.69;149122.81;4969457;28;20046;-69
2023/03/28 06:14:09;;;;;;;6.85;5.60;;;;;;;7.41;76.91;149165.00;4983377;28;20348;-69
2023/03/28 06:16:35;;;;;;;7.57;5.78;;;;;;;7.65;76.20;149223.84;4983521;28;20074;-70
2023/03/28 06:19:01;;;;;;;10.00;6.50;;;;;;;7.59;75.91;149208.50;4965581;28;20058;-70
2023/03/28 06:21:27;;;;;;;5.97;4.82;;;;;;;7.60;75.84;149211.06;4976793;28;20057;-69
2023/03/28 06:23:52;;;;;;;7.40;6.53;;;;;;;7.49;75.30;149182.91;4982998;28;20022;-70
2023/03/28 06:26:18;;;;;;;9.07;6.30;;;;;;;7.20;76.94;149111.28;4979600;28;20035;-70
2023/03/28 06:28:44;;;;;;;8.43;6.63;;;;;;;7.24;76.07;149121.53;4963881;28;20086;-71
2023/03/28 06:31:11;;;;;;;8.27;6.32;;;;;;;7.41;76.51;149165.00;4973825;28;20184;-69
2023/03/28 06:33:40;;;;;;;8.60;6.95;;;;;;;7.55;76.41;149199.56;4987040;28;20251;-71
2023/03/28 06:36:09;;;;;;;10.00;7.15;;;;;;;7.68;76.43;149230.25;4965762;28;20055;-70
2023/03/28 06:38:36;;;;;;;9.30;6.78;;;;;;;7.66;74.73;149225.16;4983235;28;20027;-70
2023/03/28 06:41:02;;;;;;;10.95;6.80;;;;;;;7.81;74.26;149262.22;4982659;28;20037;-69
2023/03/28 06:43:29;;;;;;;9.05;6.63;;;;;;;8.19;74.66;149356.94;4983209;28;20031;-71
2023/03/28 06:45:55;;;;;;;8.43;7.07;;;;;;;8.55;72.70;149446.59;4966013;28;20189;-71
2023/03/28 06:48:21;;;;;;;9.40;7.85;;;;;;;8.39;71.57;149408.13;4975248;28;20023;-70
2023/03/28 06:50:49;;;;;;;11.50;8.43;;;;;;;8.62;71.07;149465.84;4982801;28;20023;-70
2023/03/28 06:53:18;;;;;;;7.80;7.00;;;;;;;9.31;71.50;149637.44;4982368;28;20030;-70
2023/03/28 06:55:44;;;;;;;7.65;6.55;;;;;;;9.43;69.11;149666.91;4983150;28;20041;-71
2023/03/28 06:58:10;;;;;;;7.32;6.05;;;;;;;10.08;68.13;149828.41;4983051;28;20038;-69
2023/03/28 07:00:37;;;;;;;8.10;6.00;;;;;;;9.36;67.16;149648.97;4969293;28;20023;-69
2023/03/28 07:03:02;;;;;;;7.53;5.63;;;;;;;9.21;68.54;149611.84;4971269;28;20054;-70
2023/03/28 07:05:29;;;;;;;9.07;6.38;;;;;;;9.56;68.00;149697.69;4993089;28;20219;-70
2023/03/28 07:07:55;;;;;;;8.02;6.45;;;;;;;9.64;67.59;149719.44;4963427;28;20223;-70
2023/03/28 07:10:21;;;;;;;7.53;6.18;;;;;;;9.77;66.54;149750.22;4981791;28;20400;-70
2023/03/28 07:12:46;;;;;;;6.47;5.40;;;;;;;9.73;65.63;149741.22;4967650;28;20027;-70
2023/03/28 07:15:13;;;;;;;7.07;5.50;;;;;;;9.87;67.06;149775.84;4988767;28;20046;-70
2023/03/28 07:17:38;;;;;;;9.38;6.75;;;;;;;9.96;65.43;149797.63;4976974;28;20031;-70
2023/03/28 07:20:04;;;;;;;11.80;6.40;;;;;;;10.19;65.17;149856.63;4972889;28;20081;-70
2023/03/28 07:22:31;;;;;;;8.77;6.63;;;;;;;9.48;67.35;149679.75;4983042;28;20038;-70
2023/03/28 07:24:56;;;;;;;11.00;6.93;;;;;;;9.39;67.25;149656.69;4966153;28;20308;-69
2023/03/28 07:27:22;;;;;;;7.88;6.57;;;;;;;9.65;65.92;149722.03;4975254;28;20051;-70
2023/03/28 07:29:48;;;;;;;11.55;6.65;;;;;;;9.28;67.30;149628.50;4982411;28;20035;-70
2023/03/28 07:32:15;;;;;;;7.95;6.50;;;;;;;9.25;67.16;149622.09;4993019;28;20246;-69
2023/03/28 07:34:41;;;;;;;13.00;6.75;;;;;;;9.49;66.36;149682.31;4982350;28;20035;-71
2023/03/28 07:37:07;;;;;;;9.02;6.88;;;;;;;9.66;65.05;149723.28;4983238;28;20358;-70
2023/03/28 07:39:33;;;;;;;8.07;6.43;;;;;;;10.05;65.44;149819.41;4981274;28;20034;-70
2023/03/28 07:42:00;;;;;;;12.50;6.93;;;;;;;9.78;64.69;149754.06;4982158;28;20278;-70
2023/03/28 07:44:25;;;;;;;10.38;7.43;;;;;;;9.26;65.97;149623.34;4977970;28;20035;-72
2023/03/28 07:46:51;;;;;;;16.67;7.47;;;;;;;9.60;65.60;149707.94;4974624;28;20039;-70
2023/03/28 07:49:19;;;;;;;10.10;7.00;;;;;;;9.32;64.91;149640.03;4982048;28;20497;-71
2023/03/28 07:51:46;;;;;;;12.57;8.13;;;;;;;9.29;65.38;149632.34;4974620;28;20385;-70
2023/03/28 07:54:16;;;;;;;9.63;8.23;;;;;;;9.23;65.75;149616.94;4985752;28;20453;-71
2023/03/28 07:56:45;;;;;;;12.07;8.50;;;;;;;9.57;65.80;149700.25;4985878;28;20037;-70
2023/03/28 07:59:12;;;;;;;13.32;9.40;;;;;;;9.72;64.83;149737.38;4998974;28;20042;-68
2023/03/28 08:01:42;;;;;;;13.00;9.00;;;;;;;9.39;65.64;149656.69;4986570;28;20098;-70
2023/03/28 08:04:08;;;;;;;17.33;10.13;;;;;;;9.62;66.42;149713.03;4971614;28;20046;-70
2023/03/28 08:06:36;;;;;;;11.98;6.05;;;;;;;8.52;65.04;149438.94;4972535;28;20024;-70
2023/03/28 08:09:07;;;;;;;6.43;4.60;;;;;;;8.69;63.78;149481.19;4976338;28;20041;-71
2023/03/28 08:11:34;;;;;;;8.38;4.53;;;;;;;9.09;63.30;149581.06;4980082;28;20165;-70
2023/03/28 08:14:01;;;;;;;14.55;6.05;;;;;;;8.98;63.87;149555.47;4966504;28;20077;-71
2023/03/28 08:16:27;;;;;;;18.25;6.85;;;;;;;9.13;64.12;149591.34;4985343;28;20093;-72
2023/03/28 08:18:53;;;;;;;11.02;4.90;;;;;;;8.94;63.92;149545.22;4972665;28;20069;-71
2023/03/28 08:21:18;;;;;;;7.00;5.30;;;;;;;8.63;63.59;149467.09;4974176;28;20030;-71
2023/03/28 08:23:44;;;;;;;7.72;5.05;;;;;;;8.97;64.15;149552.91;4972538;28;20032;-70
2023/03/28 08:26:11;;;;;;;7.88;5.20;;;;;;;8.56;64.44;149449.19;4984001;28;20038;-69
2023/03/28 08:28:38;;;;;;;10.77;5.07;;;;;;;8.95;63.37;149547.78;4966217;28;20308;-70
2023/03/28 08:31:12;;;;;;;10.25;5.95;;;;;;;9.14;63.89;149595.16;4980529;28;20111;-70
2023/03/28 08:33:44;;;;;;;11.95;6.07;;;;;;;9.40;63.40;149657.97;4973673;28;20035;-69
2023/03/28 08:36:13;;;;;;;9.45;4.90;;;;;;;9.20;61.31;149608.00;4971751;28;20031;-71
2023/03/28 08:38:40;;;;;;;7.75;5.43;;;;;;;9.00;61.77;149559.31;4969480;28;20055;-70
2023/03/28 08:41:29;;;;;;;11.98;6.38;;;;;;;9.04;63.20;149569.56;4966600;28;20035;-70
2023/03/28 08:44:16;;;;;;;10.38;6.22;;;;;;;9.29;62.74;149632.34;4981168;28;20332;-71
2023/03/28 08:46:44;;;;;;;11.00;7.15;;;;;;;8.75;65.12;149496.53;4974860;28;20034;-71
2023/03/28 08:49:17;;;;;;;10.50;7.00;;;;;;;9.31;63.58;149636.19;4984513;28;20182;-71
2023/03/28 08:51:47;;;;;;;14.90;7.28;;;;;;;9.69;62.98;149731.03;4978170;28;20056;-71
2023/03/28 08:54:16;;;;;;;12.23;8.45;;;;;;;9.44;63.12;149669.47;4982823;28;20073;-70
2023/03/28 08:56:50;;;;;;;14.02;7.82;;;;;;;9.53;62.42;149690.00;4984613;28;20065;-69
2023/03/28 08:59:20;;;;;;;12.85;7.32;;;;;;;8.82;64.37;149514.47;4984515;28;20057;-70
2023/03/28 09:01:46;;;;;;;9.38;7.38;;;;;;;8.69;64.66;149482.44;4982321;28;20177;-70
2023/03/28 09:04:31;;;;;;;16.23;8.20;;;;;;;8.91;64.77;149537.53;4982382;28;20058;-71
2023/03/28 09:07:09;;;;;;;13.25;8.52;;;;;;;9.03;64.47;149565.72;4980987;28;20102;-70
2023/03/28 09:09:35;;;;;;;16.85;8.00;;;;;;;8.96;65.17;149550.38;4984728;28;20050;-69
2023/03/28 09:12:25;;;;;;;11.88;9.05;;;;;;;8.94;65.21;149545.22;4984010;28;20027;-69
2023/03/28 09:15:20;;;;;;;12.35;8.90;;;;;;;9.64;64.51;149719.44;4977196;28;20046;-71
2023/03/28 09:18:06;;;;;;;13.63;8.13;;;;;;;9.22;63.90;149613.09;4983553;28;20498;-71
2023/03/28 09:20:42;;;;;;;15.27;8.52;;;;;;;9.40;64.67;149659.22;4981485;28;20038;-71
2023/03/28 09:23:55;;;;;;;15.93;8.90;;;;;;;9.26;63.57;149624.66;4983243;28;20033;-72
2023/03/28 09:26:31;;;;;;;12.25;8.82;;;;;;;9.39;63.05;149656.69;4981637;28;20035;-71
2023/03/28 09:29:05;;;;;;;12.38;8.85;;;;;;;9.29;63.64;149632.34;4982008;28;20031;-70
2023/03/28 09:31:34;;;;;;;14.88;9.82;;;;;;;9.39;64.80;149655.38;4989144;28;20052;-70
2023/03/28 09:34:02;;;;;;;14.07;10.88;;;;;;;9.30;64.32;149634.88;4985507;28;20492;-70
2023/03/28 09:36:32;;;;;;;19.00;11.48;;;;;;;9.35;65.86;149646.44;4975509;28;20084;-69
2023/03/28 09:39:02;;;;;;;18.33;12.35;;;;;;;9.48;65.50;149679.75;4976678;28;20039;-69
2023/03/28 09:41:43;;;;;;;16.17;12.50;;;;;;;9.22;66.18;149614.41;4981323;28;20042;-70
2023/03/28 09:44:13;;;;;;;16.00;11.90;;;;;;;9.01;66.73;149560.56;4980187;28;20042;-70
2023/03/28 09:46:45;;;;;;;17.77;12.73;;;;;;;8.73;68.07;149491.44;4971590;28;20054;-71
2023/03/28 09:49:18;;;;;;;19.55;11.85;;;;;;;9.00;68.09;149558.03;4981554;28;20054;-70
2023/03/28 09:51:44;;;;;;;16.00;11.68;;;;;;;9.04;67.78;149568.31;4979086;28;20374;-70
2023/03/28 09:54:10;;;;;;;14.25;12.30;;;;;;;8.92;68.16;149540.13;4981190;28;20049;-70
2023/03/28 09:56:39;;;;;;;15.90;12.05;;;;;;;9.01;68.87;149561.88;4969715;28;20110;-69
2023/03/28 09:59:30;;;;;;;15.90;11.65;;;;;;;9.21;67.43;149611.84;4953604;28;20316;-70
2023/03/28 10:01:57;;;;;;;13.00;10.50;;;;;;;9.08;66.95;149579.81;4957062;29;20323;-71
2023/03/28 10:04:28;;;;;;;13.73;9.52;;;;;;;9.05;67.73;149570.81;4946038;28;20268;-71
2023/03/28 10:07:18;;;;;;;14.25;10.48;;;;;;;9.50;66.46;149684.88;4959241;29;20047;-71
2023/03/28 10:09:46;;;;;;;17.45;11.75;;;;;;;9.79;65.06;149755.34;4953199;28;20047;-71
2023/03/28 10:12:22;;;;;;;17.42;11.07;;;;;;;9.53;65.19;149691.25;4960229;28;20042;-70
2023/03/28 10:14:48;;;;;;;14.73;11.43;;;;;;;9.39;65.65;149655.38;4957952;28;20038;-71
2023/03/28 10:17:30;;;;;;;20.48;13.05;;;;;;;9.24;66.39;149619.50;4945998;28;20067;-71
2023/03/28 10:20:06;;;;;;;27.33;16.58;;;;;;;9.48;66.54;149678.47;4964928;28;20359;-70
2023/03/28 10:22:38;;;;;;;26.50;16.85;;;;;;;9.53;66.40;149691.25;4945774;29;20312;-69
2023/03/28 10:25:07;;;;;;;18.67;14.35;;;;;;;9.12;66.72;149590.06;4960753;29;20372;-71
2023/03/28 10:27:35;;;;;;;22.20;14.38;;;;;;;9.31;67.66;149636.19;4963852;28;20039;-70
2023/03/28 10:30:30;;;;;;;23.48;15.13;;;;;;;9.45;67.50;149672.06;4957140;28;20034;-69
2023/03/28 10:33:16;;;;;;;23.80;15.80;;;;;;;9.93;66.32;149789.94;4957020;28;20055;-70
2023/03/28 10:36:08;;;;;;;22.58;15.25;;;;;;;9.89;65.42;149779.69;4961682;28;20058;-70
2023/03/28 10:38:47;;;;;;;19.38;13.52;;;;;;;10.00;65.39;149807.88;4953169;28;20046;-69
2023/03/28 10:41:20;;;;;;;19.10;12.85;;;;;;;9.78;64.36;149752.81;4953680;29;20040;-70
2023/03/28 10:43:45;;;;;;;18.88;11.02;;;;;;;9.58;63.86;149704.09;4949357;28;20091;-71
2023/03/28 10:46:16;;;;;;;15.18;10.20;;;;;;;9.75;63.13;149745.06;4961007;29;20119;-70
2023/03/28 10:48:52;;;;;;;18.55;10.40;;;;;;;9.67;63.17;149727.13;4951966;28;20028;-69
2023/03/28 10:51:21;;;;;;;16.27;10.52;;;;;;;9.82;62.46;149764.31;4954605;29;20027;-70
2023/03/28 10:54:01;;;;;;;14.18;10.60;;;;;;;9.24;64.71;149618.25;4962752;28;20054;-70
2023/03/28 10:56:37;;;;;;;14.35;9.90;;;;;;;9.24;63.33;149618.25;4960511;28;20034;-71
2023/03/28 10:59:15;;;;;;;14.82;9.27;;;;;;;9.78;61.54;149752.81;4944005;29;20136;-69
2023/03/28 11:01:49;;;;;;;9.32;6.55;;;;;;;9.94;60.56;149792.53;4944329;29;20027;-70
2023/03/28 11:04:46;;;;;;;12.25;6.13;;;;;;;10.18;59.38;149854.03;4961135;29;20342;-71
2023/03/28 11:07:41;;;;;;;7.85;5.68;;;;;;;9.96;57.43;149797.63;4947357;29;20051;-70
2023/03/28 11:10:18;;;;;;;8.40;5.25;;;;;;;9.83;56.27;149765.59;4960081;29;20078;-70
2023/03/28 11:13:01;;;;;;;7.75;4.72;;;;;;;9.85;57.38;149772.00;4950892;28;20309;-69
2023/03/28 11:16:03;;;;;;;6.60;5.25;;;;;;;10.03;57.29;149815.56;4953477;29;20078;-70
2023/03/28 11:18:58;;;;;;;6.67;4.40;;;;;;;10.24;55.38;149868.16;4953348;28;20023;-71
2023/03/28 11:21:55;;;;;;;8.07;4.53;;;;;;;10.10;55.60;149833.53;4953657;29;20034;-71
2023/03/28 11:24:51;;;;;;;10.73;5.57;;;;;;;9.86;56.79;149773.28;4953295;28;20048;-70
2023/03/28 11:27:52;;;;;;;6.03;5.25;;;;;;;9.77;57.25;149750.22;4956223;29;20031;-70
2023/03/28 11:30:28;;;;;;;6.25;5.32;;;;;;;9.81;57.83;149761.75;4967684;28;20051;-71
2023/03/28 11:33:34;;;;;;;10.30;5.53;;;;;;;9.95;57.73;149796.38;4979443;28;20082;-70
2023/03/28 11:36:07;;;;;;;6.80;5.10;;;;;;;9.60;58.47;149709.19;4926679;29;20036;-69
2023/03/28 11:38:40;;;;;;;12.25;5.88;;;;;;;9.71;58.30;149736.13;4929298;29;20116;-71
2023/03/28 11:41:14;;;;;;;10.13;5.55;;;;;;;9.55;58.37;149696.41;4958016;28;20050;-72
2023/03/28 11:43:54;;;;;;;7.43;5.35;;;;;;;9.58;58.80;149704.09;4947802;29;20051;-70
2023/03/28 11:46:28;;;;;;;6.65;5.05;;;;;;;9.70;58.28;149732.28;4947402;29;20219;-71
2023/03/28 11:49:18;;;;;;;6.93;4.80;;;;;;;9.82;58.98;149764.31;4952861;28;20093;-70